Time;durP1;ratioP1;P1;durP2;ratioP2;P2;SDS_P1;SDS_P2;PMS_P1;PMS_P2;Temp;Humidity;BMP_temperature;BMP_pressure;BME280_temperature;BME280_humidity;BME280_pressure;Samples;Min_cycle;Max_cycle;Signal;HPM_P1;HPM_P2
2023/07/10 00:00:59;;;;;;;;;;;19.80;59.60;;;;;;4174912;28;20092;-84
2023/07/10 00:02:59;;;;;;;;;;;19.70;58.60;;;;;;4156834;28;19940;-84
2023/07/10 00:05:00;;;;;;;;;;;19.70;58.30;;;;;;4178768;28;19916;-84
2023/07/10 00:07:21;;;;;;;;;;;19.80;58.30;;;;;;4175088;28;20694;-87
2023/07/10 00:09:21;;;;;;;;;;;19.70;58.30;;;;;;4159771;28;19913;-84
2023/07/10 00:11:29;;;;;;;;;;;19.70;58.60;;;;;;4160355;28;19921;-86
2023/07/10 00:13:53;;;;;;;;;;;19.70;58.60;;;;;;4175612;28;19924;-87
2023/07/10 00:16:21;;;;;;;;;;;19.70;58.50;;;;;;4173559;28;19944;-84
2023/07/10 00:18:42;;;;;;;;;;;19.60;60.30;;;;;;4161287;28;20495;-87
2023/07/10 00:21:02;;;;;;;;;;;19.60;61.40;;;;;;4174711;28;19955;-84
2023/07/10 00:23:23;;;;;;;;;;;19.60;61.30;;;;;;4171446;28;19956;-84
2023/07/10 00:25:43;;;;;;;;;;;19.60;58.70;;;;;;4175127;28;19962;-84
2023/07/10 00:28:11;;;;;;;;;;;19.60;59.10;;;;;;4169303;28;19992;-87
2023/07/10 00:30:32;;;;;;;;;;;19.50;59.90;;;;;;4176811;28;20417;-85
2023/07/10 00:32:53;;;;;;;;;;;19.50;60.50;;;;;;4156549;28;20541;-85
2023/07/10 00:35:17;;;;;;;;;;;19.50;60.40;;;;;;4177505;28;19916;-84
2023/07/10 00:37:37;;;;;;;;;;;19.40;60.00;;;;;;4174045;28;19944;-84
2023/07/10 00:39:58;;;;;;;;;;;19.50;60.10;;;;;;4171534;28;19920;-87
2023/07/10 00:42:21;;;;;;;;;;;19.40;60.00;;;;;;4174301;28;20770;-86
2023/07/10 00:44:43;;;;;;;;;;;19.40;60.40;;;;;;4174750;28;19920;-84
2023/07/10 00:47:07;;;;;;;;;;;19.40;60.10;;;;;;4188616;28;20367;-85
2023/07/10 00:49:31;;;;;;;;;;;19.40;61.30;;;;;;4176500;28;19939;-85
2023/07/10 00:52:01;;;;;;;;;;;19.40;61.40;;;;;;4170689;28;19948;-86
2023/07/10 00:54:27;;;;;;;;;;;19.40;60.70;;;;;;4171003;28;19965;-85
2023/07/10 00:56:49;;;;;;;;;;;19.40;60.70;;;;;;4171726;28;19921;-84
2023/07/10 00:58:56;;;;;;;;;;;19.40;59.90;;;;;;4157339;28;20008;-86
2023/07/10 01:01:07;;;;;;;;;;;19.30;60.20;;;;;;4173546;28;19952;-85
2023/07/10 01:03:12;;;;;;;;;;;19.30;60.30;;;;;;4171302;28;19946;-86
2023/07/10 01:05:14;;;;;;;;;;;19.40;60.30;;;;;;4173837;28;19971;-84
2023/07/10 01:07:18;;;;;;;;;;;19.30;60.50;;;;;;4172100;28;20378;-83
2023/07/10 01:09:19;;;;;;;;;;;19.30;60.70;;;;;;4174899;28;19925;-88
2023/07/10 01:11:20;;;;;;;;;;;19.30;60.70;;;;;;4152311;28;20513;-85
2023/07/10 01:13:20;;;;;;;;;;;19.30;64.40;;;;;;4173882;28;19928;-85
2023/07/10 01:15:21;;;;;;;;;;;19.40;64.40;;;;;;4162431;28;19927;-85
2023/07/10 01:17:22;;;;;;;;;;;19.30;62.90;;;;;;4175445;28;20367;-86
2023/07/10 01:19:23;;;;;;;;;;;19.30;64.30;;;;;;4157922;28;20007;-84
2023/07/10 01:21:27;;;;;;;;;;;19.30;64.90;;;;;;4173928;28;19913;-87
2023/07/10 01:23:28;;;;;;;;;;;19.30;65.90;;;;;;4157850;28;19921;-86
2023/07/10 01:25:31;;;;;;;;;;;19.30;64.40;;;;;;4189274;28;19940;-89
2023/07/10 01:27:32;;;;;;;;;;;19.40;64.50;;;;;;4194916;28;19920;-87
2023/07/10 01:29:49;;;;;;;;;;;19.30;64.70;;;;;;4178336;28;19920;-89
2023/07/10 01:31:51;;;;;;;;;;;19.30;67.10;;;;;;4177111;28;19917;-89
2023/07/10 01:34:12;;;;;;;;;;;19.30;65.60;;;;;;4191763;28;19923;-89
2023/07/10 01:36:34;;;;;;;;;;;19.20;65.40;;;;;;4179965;28;19932;-90
2023/07/10 01:38:58;;;;;;;;;;;19.20;64.50;;;;;;4175463;28;20789;-84
2023/07/10 01:41:29;;;;;;;;;;;19.20;63.90;;;;;;4164406;28;19917;-87
2023/07/10 01:43:50;;;;;;;;;;;19.20;65.20;;;;;;4158112;28;19925;-84
2023/07/10 01:46:18;;;;;;;;;;;19.20;65.00;;;;;;4162361;28;20354;-86
2023/07/10 01:48:39;;;;;;;;;;;19.20;63.80;;;;;;4176322;28;20397;-86
2023/07/10 01:50:59;;;;;;;;;;;19.20;65.10;;;;;;4174444;28;20381;-84
2023/07/10 01:53:20;;;;;;;;;;;19.20;65.70;;;;;;4171779;28;20298;-85
2023/07/10 01:55:43;;;;;;;;;;;19.30;64.70;;;;;;4157574;28;20445;-88
2023/07/10 01:57:43;;;;;;;;;;;19.20;64.00;;;;;;4169752;28;19947;-85
2023/07/10 01:59:44;;;;;;;;;;;19.20;63.50;;;;;;4156269;28;20378;-84
2023/07/10 02:01:45;;;;;;;;;;;19.20;64.00;;;;;;4155306;28;20449;-84
2023/07/10 02:03:46;;;;;;;;;;;19.20;63.70;;;;;;4136361;28;20370;-85
2023/07/10 02:05:46;;;;;;;;;;;19.10;63.10;;;;;;4173384;28;19992;-87
2023/07/10 02:07:47;;;;;;;;;;;19.20;63.70;;;;;;4170277;28;19916;-85
2023/07/10 02:09:48;;;;;;;;;;;19.10;64.00;;;;;;4156033;28;19924;-86
2023/07/10 02:11:48;;;;;;;;;;;19.10;64.20;;;;;;4175237;28;20385;-85
2023/07/10 02:13:49;;;;;;;;;;;19.20;64.50;;;;;;4173180;28;20532;-85
2023/07/10 02:15:50;;;;;;;;;;;19.20;64.60;;;;;;4157866;28;19965;-84
2023/07/10 02:17:51;;;;;;;;;;;19.10;64.50;;;;;;4154222;28;19917;-85
2023/07/10 02:19:57;;;;;;;;;;;19.10;64.50;;;;;;4154674;28;20536;-87
2023/07/10 02:21:57;;;;;;;;;;;19.20;64.00;;;;;;4184827;28;20220;-84
2023/07/10 02:23:58;;;;;;;;;;;19.10;63.60;;;;;;4170341;28;19924;-85
2023/07/10 02:26:02;;;;;;;;;;;19.20;64.00;;;;;;4143356;28;19940;-85
2023/07/10 02:28:03;;;;;;;;;;;19.20;64.20;;;;;;4186755;28;19927;-87
2023/07/10 02:30:03;;;;;;;;;;;19.20;64.30;;;;;;4155762;28;19913;-85
2023/07/10 02:32:04;;;;;;;;;;;19.20;64.40;;;;;;4157319;28;19928;-86
2023/07/10 02:34:05;;;;;;;;;;;19.10;64.00;;;;;;4159872;28;19917;-87
2023/07/10 02:36:06;;;;;;;;;;;19.20;63.70;;;;;;4142327;28;19914;-85
2023/07/10 02:38:07;;;;;;;;;;;19.20;63.70;;;;;;4168346;28;19947;-84
2023/07/10 02:40:08;;;;;;;;;;;19.20;63.70;;;;;;4154171;28;20357;-86
2023/07/10 02:42:08;;;;;;;;;;;19.20;64.00;;;;;;4172379;28;19916;-84
2023/07/10 02:44:09;;;;;;;;;;;19.20;64.30;;;;;;4152982;28;20540;-85
2023/07/10 02:46:09;;;;;;;;;;;19.20;64.10;;;;;;4184769;28;19921;-87
2023/07/10 02:48:10;;;;;;;;;;;19.20;64.20;;;;;;4171753;28;19914;-86
2023/07/10 02:50:11;;;;;;;;;;;19.20;64.40;;;;;;4173284;28;19920;-85
2023/07/10 02:52:13;;;;;;;;;;;19.10;64.40;;;;;;4170708;28;19977;-84
2023/07/10 02:54:16;;;;;;;;;;;19.20;64.30;;;;;;4156634;28;20016;-85
2023/07/10 02:56:17;;;;;;;;;;;19.20;64.40;;;;;;4157631;28;19913;-86
2023/07/10 02:58:17;;;;;;;;;;;19.20;64.70;;;;;;4161793;28;19924;-84
2023/07/10 03:00:18;;;;;;;;;;;19.20;64.70;;;;;;4155594;28;20378;-86
2023/07/10 03:02:18;;;;;;;;;;;19.10;64.60;;;;;;4187213;28;19913;-87
2023/07/10 03:04:19;;;;;;;;;;;19.20;64.60;;;;;;4171752;28;19924;-84
2023/07/10 03:06:22;;;;;;;;;;;19.20;64.70;;;;;;4160018;28;19921;-84
2023/07/10 03:08:22;;;;;;;;;;;19.20;64.80;;;;;;4158379;28;19975;-86
2023/07/10 03:10:23;;;;;;;;;;;19.20;64.90;;;;;;4186787;28;20366;-86
2023/07/10 03:12:24;;;;;;;;;;;19.20;65.00;;;;;;4172735;28;20763;-84
2023/07/10 03:14:25;;;;;;;;;;;19.20;65.00;;;;;;4170758;28;20002;-86
2023/07/10 03:16:25;;;;;;;;;;;19.20;64.80;;;;;;4171857;28;19917;-85
2023/07/10 03:18:26;;;;;;;;;;;19.20;64.70;;;;;;4155739;28;19968;-86
2023/07/10 03:20:26;;;;;;;;;;;19.20;64.10;;;;;;4157851;28;19928;-85
2023/07/10 03:22:27;;;;;;;;;;;19.20;64.60;;;;;;4152642;28;19918;-85
2023/07/10 03:24:28;;;;;;;;;;;19.20;66.20;;;;;;4159500;28;19921;-86
2023/07/10 03:26:28;;;;;;;;;;;19.20;66.10;;;;;;4175259;28;19921;-87
2023/07/10 03:28:30;;;;;;;;;;;19.20;65.50;;;;;;4171297;28;20038;-85
2023/07/10 03:30:34;;;;;;;;;;;19.20;65.00;;;;;;4168198;28;20435;-84
2023/07/10 03:32:34;;;;;;;;;;;19.10;66.00;;;;;;4140683;28;20009;-86
2023/07/10 03:34:35;;;;;;;;;;;19.10;66.90;;;;;;4172619;28;19917;-83
2023/07/10 03:36:45;;;;;;;;;;;19.20;66.20;;;;;;4172402;28;19940;-84
2023/07/10 03:38:48;;;;;;;;;;;19.10;66.20;;;;;;4156401;28;19952;-85
2023/07/10 03:40:52;;;;;;;;;;;19.00;65.30;;;;;;4140835;28;20024;-84
2023/07/10 03:42:58;;;;;;;;;;;19.00;65.50;;;;;;4173425;28;19921;-84
2023/07/10 03:44:59;;;;;;;;;;;19.00;65.70;;;;;;4156933;28;19921;-85
2023/07/10 03:47:12;;;;;;;;;;;19.00;65.50;;;;;;4184731;28;20399;-83
2023/07/10 03:49:36;;;;;;;;;;;19.00;66.10;;;;;;4157927;28;20495;-83
2023/07/10 03:51:37;;;;;;;;;;;19.00;65.30;;;;;;4155447;28;19921;-84
2023/07/10 03:53:57;;;;;;;;;;;19.00;65.70;;;;;;4172759;28;19912;-86
2023/07/10 03:56:18;;;;;;;;;;;19.00;66.00;;;;;;4166730;28;19916;-85
2023/07/10 03:58:23;;;;;;;;;;;19.00;66.60;;;;;;4169545;28;19970;-83
2023/07/10 04:00:44;;;;;;;;;;;19.00;66.60;;;;;;4160047;28;20211;-84
2023/07/10 04:03:04;;;;;;;;;;;19.00;66.60;;;;;;4175161;28;20013;-85
2023/07/10 04:05:25;;;;;;;;;;;19.00;66.60;;;;;;4173046;28;19963;-84
2023/07/10 04:07:45;;;;;;;;;;;18.90;67.80;;;;;;4175814;28;20010;-85
2023/07/10 04:10:06;;;;;;;;;;;19.00;68.10;;;;;;4159589;28;20431;-84
2023/07/10 04:12:48;;;;;;;;;;;18.90;68.20;;;;;;4162064;28;19921;-85
2023/07/10 04:15:08;;;;;;;;;;;19.00;67.40;;;;;;4164823;28;19916;-84
2023/07/10 04:17:31;;;;;;;;;;;19.00;68.40;;;;;;4156041;28;19992;-83
2023/07/10 04:19:52;;;;;;;;;;;19.00;67.90;;;;;;4169669;28;19921;-84
2023/07/10 04:22:12;;;;;;;;;;;19.00;68.90;;;;;;4175607;28;19921;-85
2023/07/10 04:24:39;;;;;;;;;;;18.90;69.60;;;;;;4159976;28;19921;-85
2023/07/10 04:26:59;;;;;;;;;;;18.90;69.10;;;;;;4160576;28;19921;-85
2023/07/10 04:29:24;;;;;;;;;;;18.80;68.40;;;;;;4174313;28;19920;-84
2023/07/10 04:31:44;;;;;;;;;;;18.90;68.40;;;;;;4175515;28;19939;-84
2023/07/10 04:34:05;;;;;;;;;;;18.90;68.50;;;;;;4161455;28;20000;-84
2023/07/10 04:36:26;;;;;;;;;;;18.90;69.10;;;;;;4176074;28;20000;-84
2023/07/10 04:38:47;;;;;;;;;;;18.80;68.50;;;;;;4175408;28;19916;-84
2023/07/10 04:41:10;;;;;;;;;;;18.90;68.30;;;;;;4170320;28;19923;-84
2023/07/10 04:43:31;;;;;;;;;;;18.80;68.40;;;;;;4159249;28;19925;-86
2023/07/10 04:45:53;;;;;;;;;;;18.90;68.60;;;;;;4175438;28;19959;-84
2023/07/10 04:48:16;;;;;;;;;;;18.80;68.50;;;;;;4164098;28;19913;-85
2023/07/10 04:50:37;;;;;;;;;;;18.80;68.30;;;;;;4170525;28;19947;-85
2023/07/10 04:52:37;;;;;;;;;;;18.90;68.60;;;;;;4156650;28;19917;-83
2023/07/10 04:54:38;;;;;;;;;;;18.90;68.50;;;;;;4170716;28;19963;-84
2023/07/10 04:56:38;;;;;;;;;;;18.90;69.10;;;;;;4177667;28;20364;-84
2023/07/10 04:58:49;;;;;;;;;;;18.90;70.20;;;;;;4146137;28;19970;-85
2023/07/10 05:00:54;;;;;;;;;;;18.90;69.40;;;;;;4161935;28;19921;-84
2023/07/10 05:02:54;;;;;;;;;;;18.90;68.80;;;;;;4163805;28;19920;-86
2023/07/10 05:04:55;;;;;;;;;;;18.90;68.80;;;;;;4160176;28;19914;-83
2023/07/10 05:07:23;;;;;;;;;;;18.90;68.80;;;;;;4161847;28;19914;-84
2023/07/10 05:09:27;;;;;;;;;;;18.90;68.90;;;;;;4174909;28;19996;-86
2023/07/10 05:11:28;;;;;;;;;;;18.80;69.60;;;;;;4510110;22;19915;-85
2023/07/10 05:13:29;;;;;;;;;;;18.90;69.80;;;;;;4142873;28;19975;-85
2023/07/10 05:15:30;;;;;;;;;;;19.00;70.00;;;;;;4143032;28;19968;-86
2023/07/10 05:17:30;;;;;;;;;;;19.00;69.60;;;;;;4146304;28;19956;-84
2023/07/10 05:19:33;;;;;;;;;;;18.90;69.30;;;;;;4126106;28;20684;-84
2023/07/10 05:21:33;;;;;;;;;;;18.90;69.20;;;;;;4141995;28;19983;-84
2023/07/10 05:23:35;;;;;;;;;;;18.90;69.10;;;;;;4113739;28;19926;-84
2023/07/10 05:25:39;;;;;;;;;;;19.00;70.00;;;;;;4141211;28;19917;-86
2023/07/10 05:27:39;;;;;;;;;;;19.00;70.60;;;;;;4109815;28;20665;-84
2023/07/10 05:29:40;;;;;;;;;;;19.00;70.90;;;;;;4142100;28;19924;-84
2023/07/10 05:31:41;;;;;;;;;;;19.00;70.70;;;;;;4106214;28;20345;-84
2023/07/10 05:33:41;;;;;;;;;;;19.00;70.90;;;;;;4124015;28;19917;-83
2023/07/10 05:35:49;;;;;;;;;;;19.10;70.40;;;;;;4129357;28;20499;-84
2023/07/10 05:37:50;;;;;;;;;;;19.00;70.80;;;;;;4126316;28;20416;-84
2023/07/10 05:39:50;;;;;;;;;;;19.00;70.40;;;;;;4131982;28;20016;-84
2023/07/10 05:41:51;;;;;;;;;;;19.00;70.50;;;;;;4123711;28;20378;-84
2023/07/10 05:43:51;;;;;;;;;;;19.10;70.50;;;;;;4141002;28;19969;-84
2023/07/10 05:46:00;;;;;;;;;;;19.00;69.40;;;;;;4135082;28;20706;-84
2023/07/10 05:48:01;;;;;;;;;;;19.10;69.80;;;;;;4124780;28;19987;-84
2023/07/10 05:50:04;;;;;;;;;;;19.10;69.50;;;;;;4125143;28;19926;-85
2023/07/10 05:52:05;;;;;;;;;;;19.10;69.10;;;;;;4124171;28;20288;-84
2023/07/10 05:54:06;;;;;;;;;;;19.10;69.20;;;;;;4142200;28;19949;-84
2023/07/10 05:56:06;;;;;;;;;;;19.10;70.40;;;;;;4139147;28;19917;-85
2023/07/10 05:58:07;;;;;;;;;;;19.10;69.70;;;;;;4138859;28;19913;-84
2023/07/10 06:00:08;;;;;;;;;;;19.10;69.80;;;;;;4125597;28;20406;-84
2023/07/10 06:02:11;;;;;;;;;;;19.10;70.00;;;;;;4110695;28;19922;-84
2023/07/10 06:04:12;;;;;;;;;;;19.10;70.00;;;;;;4128145;28;19925;-82
2023/07/10 06:06:13;;;;;;;;;;;19.10;70.20;;;;;;4140152;28;20003;-85
2023/07/10 06:08:14;;;;;;;;;;;19.10;70.10;;;;;;4105695;28;20482;-83
2023/07/10 06:10:14;;;;;;;;;;;19.20;69.90;;;;;;4135496;28;20376;-83
2023/07/10 06:12:20;;;;;;;;;;;19.20;69.70;;;;;;4121799;28;19997;-84
2023/07/10 06:14:21;;;;;;;;;;;19.20;69.10;;;;;;4128067;28;20507;-83
2023/07/10 06:16:21;;;;;;;;;;;19.20;68.40;;;;;;4138310;28;19984;-84
2023/07/10 06:18:22;;;;;;;;;;;19.20;68.10;;;;;;4120067;28;20036;-84
2023/07/10 06:20:23;;;;;;;;;;;19.20;67.90;;;;;;4122125;28;19919;-84
2023/07/10 06:22:24;;;;;;;;;;;19.30;69.10;;;;;;4118645;28;20365;-85
2023/07/10 06:24:45;;;;;;;;;;;19.30;68.30;;;;;;4115429;28;19936;-86
2023/07/10 06:26:45;;;;;;;;;;;19.30;68.30;;;;;;4122326;28;20424;-84
2023/07/10 06:28:48;;;;;;;;;;;19.30;68.70;;;;;;4137951;28;19913;-84
2023/07/10 06:30:56;;;;;;;;;;;19.40;69.40;;;;;;4125577;28;19932;-83
2023/07/10 06:32:57;;;;;;;;;;;19.30;69.30;;;;;;4123486;28;19977;-83
2023/07/10 06:34:57;;;;;;;;;;;19.40;69.80;;;;;;4138333;28;19972;-85
2023/07/10 06:36:58;;;;;;;;;;;19.40;69.80;;;;;;4096976;28;20335;-85
2023/07/10 06:39:01;;;;;;;;;;;19.50;69.70;;;;;;4117289;28;19913;-84
2023/07/10 06:41:03;;;;;;;;;;;19.50;70.30;;;;;;4097212;28;19924;-84
2023/07/10 06:43:04;;;;;;;;;;;19.50;70.30;;;;;;4101856;28;19922;-85
2023/07/10 06:45:10;;;;;;;;;;;19.60;70.60;;;;;;4118517;28;22297;-84
2023/07/10 06:47:11;;;;;;;;;;;19.70;70.70;;;;;;4102568;28;19981;-84
2023/07/10 06:49:12;;;;;;;;;;;19.70;71.00;;;;;;4111943;28;20453;-84
2023/07/10 06:51:12;;;;;;;;;;;19.70;70.80;;;;;;4120018;28;19922;-83
2023/07/10 06:53:13;;;;;;;;;;;19.80;70.60;;;;;;4125328;28;20509;-85
2023/07/10 06:55:15;;;;;;;;;;;19.80;70.60;;;;;;4119061;28;19929;-84
2023/07/10 06:57:16;;;;;;;;;;;19.90;71.00;;;;;;4123506;28;20216;-84
2023/07/10 06:59:26;;;;;;;;;;;19.90;71.00;;;;;;4105792;28;19922;-84
2023/07/10 07:01:33;;;;;;;;;;;20.00;71.00;;;;;;4105933;28;20500;-84
2023/07/10 07:03:35;;;;;;;;;;;20.00;71.30;;;;;;4072756;29;20404;-83
2023/07/10 07:05:56;;;;;;;;;;;20.00;71.10;;;;;;4102453;28;19918;-85
2023/07/10 07:08:19;;;;;;;;;;;20.00;71.00;;;;;;4073720;28;20372;-84
2023/07/10 07:10:22;;;;;;;;;;;20.00;71.10;;;;;;4070928;29;19919;-84
2023/07/10 07:12:43;;;;;;;;;;;20.00;71.00;;;;;;4084649;28;19977;-85
2023/07/10 07:15:06;;;;;;;;;;;20.00;71.10;;;;;;4121828;28;20367;-86
2023/07/10 07:17:27;;;;;;;;;;;20.00;70.00;;;;;;4121914;28;19918;-84
2023/07/10 07:19:47;;;;;;;;;;;20.00;70.20;;;;;;4135938;28;20080;-85
2023/07/10 07:22:08;;;;;;;;;;;19.90;70.10;;;;;;4136632;28;19902;-84
2023/07/10 07:24:29;;;;;;;;;;;19.90;70.50;;;;;;4137285;28;19909;-83
2023/07/10 07:26:49;;;;;;;;;;;19.90;70.60;;;;;;4136472;28;19964;-85
2023/07/10 07:29:10;;;;;;;;;;;20.00;70.70;;;;;;4146599;28;19956;-84
2023/07/10 07:31:33;;;;;;;;;;;19.90;71.00;;;;;;4124852;28;20519;-85
2023/07/10 07:33:54;;;;;;;;;;;19.90;71.00;;;;;;4121484;28;20055;-84
2023/07/10 07:36:15;;;;;;;;;;;19.90;70.90;;;;;;4121216;28;19922;-83
2023/07/10 07:38:41;;;;;;;;;;;19.80;70.80;;;;;;4122606;28;20012;-83
2023/07/10 07:41:02;;;;;;;;;;;19.90;70.80;;;;;;4127113;28;20343;-84
2023/07/10 07:43:22;;;;;;;;;;;19.80;71.10;;;;;;4123885;28;19932;-83
2023/07/10 07:45:52;;;;;;;;;;;19.80;71.50;;;;;;4119270;28;19993;-83
2023/07/10 07:48:12;;;;;;;;;;;19.80;71.30;;;;;;4139252;28;19964;-84
2023/07/10 07:50:33;;;;;;;;;;;19.80;71.10;;;;;;4125245;28;19965;-84
2023/07/10 07:52:54;;;;;;;;;;;19.80;71.20;;;;;;4123640;28;19929;-84
2023/07/10 07:55:14;;;;;;;;;;;19.80;71.20;;;;;;4122842;28;20235;-84
2023/07/10 07:57:37;;;;;;;;;;;19.80;70.90;;;;;;4126055;28;20401;-83
2023/07/10 07:59:58;;;;;;;;;;;19.80;71.00;;;;;;4125544;28;20000;-83
2023/07/10 08:02:18;;;;;;;;;;;19.80;71.10;;;;;;4127246;28;19960;-83
2023/07/10 08:04:48;;;;;;;;;;;19.80;71.50;;;;;;4138033;28;20383;-83
2023/07/10 08:07:09;;;;;;;;;;;19.80;71.20;;;;;;4124887;28;20005;-83
2023/07/10 08:09:30;;;;;;;;;;;19.80;71.80;;;;;;4126256;28;19918;-84
2023/07/10 08:11:54;;;;;;;;;;;19.80;72.00;;;;;;4126335;28;19922;-84
2023/07/10 08:14:14;;;;;;;;;;;19.70;71.70;;;;;;4125126;28;19922;-83
2023/07/10 08:16:35;;;;;;;;;;;19.80;70.90;;;;;;4120725;28;19922;-83
2023/07/10 08:18:56;;;;;;;;;;;19.70;71.50;;;;;;4123447;28;20020;-84
2023/07/10 08:21:19;;;;;;;;;;;19.70;71.70;;;;;;4129262;28;19937;-83
2023/07/10 08:23:40;;;;;;;;;;;19.70;72.20;;;;;;4132139;28;19983;-83
2023/07/10 08:26:01;;;;;;;;;;;19.70;72.00;;;;;;4127907;28;19963;-84
2023/07/10 08:28:21;;;;;;;;;;;19.70;71.30;;;;;;4127054;28;19917;-85
2023/07/10 08:30:42;;;;;;;;;;;19.60;70.60;;;;;;4143683;28;19924;-83
2023/07/10 08:33:02;;;;;;;;;;;19.60;71.30;;;;;;4127445;28;19972;-84
2023/07/10 08:35:23;;;;;;;;;;;19.60;71.30;;;;;;4127394;28;19914;-84
2023/07/10 08:37:43;;;;;;;;;;;19.60;71.30;;;;;;4128425;28;19925;-83
2023/07/10 08:40:14;;;;;;;;;;;19.50;71.40;;;;;;4132656;28;20089;-85
2023/07/10 08:42:35;;;;;;;;;;;19.50;71.90;;;;;;4121750;28;19922;-83
2023/07/10 08:44:54;;;;;;;;;;;19.50;72.20;;;;;;4128467;28;21570;-83
2023/07/10 08:47:15;;;;;;;;;;;19.50;73.10;;;;;;4122915;28;19957;-84
2023/07/10 08:49:38;;;;;;;;;;;19.50;71.30;;;;;;4139019;28;19928;-83
2023/07/10 08:52:13;;;;;;;;;;;19.50;70.60;;;;;;4125264;28;19924;-84
2023/07/10 08:54:32;;;;;;;;;;;19.50;70.40;;;;;;4125940;28;19965;-83
2023/07/10 08:57:13;;;;;;;;;;;19.50;70.90;;;;;;4132519;28;20477;-84
2023/07/10 08:59:59;;;;;;;;;;;19.50;70.90;;;;;;4126017;28;19943;-83
2023/07/10 09:02:24;;;;;;;;;;;19.50;72.10;;;;;;4102582;28;19941;-82
2023/07/10 09:04:44;;;;;;;;;;;19.50;72.60;;;;;;4108060;28;19932;-84
2023/07/10 09:07:10;;;;;;;;;;;19.50;72.70;;;;;;4094581;28;19929;-83
2023/07/10 09:09:40;;;;;;;;;;;19.50;72.10;;;;;;4095644;28;20436;-83
2023/07/10 09:12:02;;;;;;;;;;;19.50;71.30;;;;;;4106468;28;20034;-84
2023/07/10 09:14:29;;;;;;;;;;;19.60;72.30;;;;;;4104540;28;19985;-83
2023/07/10 09:16:50;;;;;;;;;;;19.70;73.40;;;;;;4105365;28;19925;-83
2023/07/10 09:19:21;;;;;;;;;;;19.70;73.60;;;;;;4090190;28;20058;-84
2023/07/10 09:21:41;;;;;;;;;;;19.80;75.30;;;;;;4085010;28;19984;-84
2023/07/10 09:24:02;;;;;;;;;;;20.00;75.40;;;;;;4107840;28;19929;-84
2023/07/10 09:26:25;;;;;;;;;;;20.10;75.30;;;;;;4112320;28;19921;-83
2023/07/10 09:28:53;;;;;;;;;;;20.20;75.90;;;;;;4089280;28;20943;-84
2023/07/10 09:31:20;;;;;;;;;;;20.20;75.80;;;;;;4102997;28;19953;-84
2023/07/10 09:33:43;;;;;;;;;;;20.30;75.30;;;;;;4098574;28;19925;-83
2023/07/10 09:36:11;;;;;;;;;;;20.40;74.80;;;;;;4103329;28;19984;-85
2023/07/10 09:38:30;;;;;;;;;;;20.50;74.90;;;;;;4111469;28;19928;-84
2023/07/10 09:40:50;;;;;;;;;;;20.50;74.50;;;;;;4130384;28;20527;-83
2023/07/10 09:43:20;;;;;;;;;;;20.60;74.50;;;;;;4117675;28;19937;-85
2023/07/10 09:45:44;;;;;;;;;;;20.60;74.80;;;;;;4125729;28;19928;-84
2023/07/10 09:48:10;;;;;;;;;;;20.70;73.90;;;;;;4128382;28;19949;-84
2023/07/10 09:50:31;;;;;;;;;;;20.70;73.70;;;;;;4121809;28;19992;-85
2023/07/10 09:52:55;;;;;;;;;;;20.70;74.40;;;;;;4123691;28;19964;-84
2023/07/10 09:55:15;;;;;;;;;;;20.70;73.50;;;;;;4121464;28;19996;-83
2023/07/10 09:57:52;;;;;;;;;;;20.80;73.20;;;;;;4123844;28;19925;-85
2023/07/10 10:00:14;;;;;;;;;;;20.80;73.10;;;;;;4137167;28;19964;-87
2023/07/10 10:02:47;;;;;;;;;;;20.80;72.60;;;;;;4122200;28;19938;-85
2023/07/10 10:05:12;;;;;;;;;;;20.80;72.40;;;;;;4122991;28;20858;-84
2023/07/10 10:07:35;;;;;;;;;;;20.80;72.10;;;;;;4125957;28;19920;-87
2023/07/10 10:10:18;;;;;;;;;;;20.90;72.10;;;;;;4123620;28;19992;-83
2023/07/10 10:12:38;;;;;;;;;;;20.70;71.90;;;;;;4121813;28;19941;-84
2023/07/10 10:15:12;;;;;;;;;;;20.80;71.90;;;;;;4124723;28;20025;-83
2023/07/10 10:17:35;;;;;;;;;;;20.80;72.10;;;;;;4121819;28;20029;-84
2023/07/10 10:19:57;;;;;;;;;;;20.80;73.10;;;;;;4125304;28;19940;-84
2023/07/10 10:22:16;;;;;;;;;;;20.90;72.30;;;;;;4123719;28;19941;-82
2023/07/10 10:24:36;;;;;;;;;;;20.90;71.90;;;;;;4126049;28;19948;-83
2023/07/10 10:26:58;;;;;;;;;;;20.90;72.30;;;;;;4126619;28;20584;-85
2023/07/10 10:29:36;;;;;;;;;;;20.90;71.60;;;;;;4122901;28;20325;-85
2023/07/10 10:32:07;;;;;;;;;;;21.00;71.60;;;;;;4123851;28;20323;-83
2023/07/10 10:34:38;;;;;;;;;;;21.00;71.30;;;;;;4134356;28;19924;-84
2023/07/10 10:37:03;;;;;;;;;;;21.00;71.70;;;;;;4132762;28;20410;-84
2023/07/10 10:42:47;;;;;;;;;;;21.00;70.50;;;;;;4178066;22;19936;-85
2023/07/10 10:45:16;;;;;;;;;;;21.00;70.10;;;;;;4145315;28;20808;-83
2023/07/10 10:47:54;;;;;;;;;;;21.00;69.80;;;;;;4134530;28;20338;-84
2023/07/10 10:50:28;;;;;;;;;;;21.10;70.40;;;;;;4137273;28;19928;-84
2023/07/10 10:52:57;;;;;;;;;;;21.10;69.10;;;;;;4119692;28;21143;-84
2023/07/10 10:55:35;;;;;;;;;;;21.10;69.10;;;;;;4119838;28;19941;-85
2023/07/10 10:58:17;;;;;;;;;;;21.10;68.70;;;;;;4120008;28;19924;-82
2023/07/10 11:00:47;;;;;;;;;;;21.10;69.70;;;;;;4117795;28;19927;-84
2023/07/10 11:03:22;;;;;;;;;;;21.20;68.40;;;;;;4120757;28;19920;-85
2023/07/10 11:05:44;;;;;;;;;;;21.20;68.00;;;;;;4121266;28;19953;-86
2023/07/10 11:08:08;;;;;;;;;;;21.20;68.10;;;;;;4121315;28;19920;-84
2023/07/10 11:10:39;;;;;;;;;;;21.20;68.00;;;;;;4119320;28;19949;-82
2023/07/10 11:12:58;;;;;;;;;;;21.30;68.20;;;;;;4126392;28;20057;-83
2023/07/10 11:15:19;;;;;;;;;;;21.30;68.10;;;;;;4124598;28;19972;-84
2023/07/10 11:17:38;;;;;;;;;;;21.30;68.00;;;;;;4124131;28;19996;-86
2023/07/10 11:20:00;;;;;;;;;;;21.40;68.20;;;;;;4120386;28;21012;-85
2023/07/10 11:22:19;;;;;;;;;;;21.50;68.30;;;;;;4134748;28;19933;-84
2023/07/10 11:24:47;;;;;;;;;;;21.50;67.80;;;;;;4119446;28;20019;-86
2023/07/10 11:27:11;;;;;;;;;;;21.60;67.90;;;;;;4123011;28;19954;-84
2023/07/10 11:29:42;;;;;;;;;;;21.70;67.90;;;;;;4122605;28;19924;-84
2023/07/10 11:32:09;;;;;;;;;;;21.70;67.30;;;;;;4122233;28;19965;-85
2023/07/10 11:34:28;;;;;;;;;;;21.70;67.00;;;;;;4126405;28;20519;-83
2023/07/10 11:36:48;;;;;;;;;;;21.80;67.40;;;;;;4117233;28;21363;-85
2023/07/10 11:39:12;;;;;;;;;;;21.80;67.30;;;;;;4119831;28;19940;-85
2023/07/10 11:41:36;;;;;;;;;;;21.90;66.40;;;;;;4122649;28;19941;-84
2023/07/10 11:44:16;;;;;;;;;;;21.90;65.80;;;;;;4127219;28;19933;-87
2023/07/10 11:46:36;;;;;;;;;;;21.90;64.20;;;;;;4122934;28;20008;-88
2023/07/10 11:48:58;;;;;;;;;;;21.90;63.90;;;;;;4121763;28;19921;-85
2023/07/10 11:51:28;;;;;;;;;;;21.90;63.40;;;;;;4135898;28;20489;-85
2023/07/10 11:53:47;;;;;;;;;;;22.00;63.10;;;;;;4136116;28;20004;-86
2023/07/10 11:56:06;;;;;;;;;;;22.00;63.00;;;;;;4118966;28;19964;-85
2023/07/10 11:58:27;;;;;;;;;;;22.00;62.80;;;;;;4123717;28;19920;-84
2023/07/10 12:01:05;;;;;;;;;;;22.00;62.50;;;;;;4123939;28;20476;-85
2023/07/10 12:03:29;;;;;;;;;;;22.10;62.90;;;;;;4136952;28;19991;-86
2023/07/10 12:05:49;;;;;;;;;;;22.00;61.10;;;;;;4113724;28;19925;-84
2023/07/10 12:08:14;;;;;;;;;;;22.10;60.80;;;;;;4132450;28;19929;-84
2023/07/10 12:10:50;;;;;;;;;;;22.10;61.00;;;;;;4123313;28;19953;-85
2023/07/10 12:13:29;;;;;;;;;;;22.10;60.90;;;;;;4117561;28;19925;-85
2023/07/10 12:15:49;;;;;;;;;;;22.20;62.20;;;;;;4120824;28;20837;-85
2023/07/10 12:18:08;;;;;;;;;;;22.20;61.30;;;;;;4119749;28;19976;-85
2023/07/10 12:20:30;;;;;;;;;;;22.30;61.00;;;;;;4117378;28;19924;-86
2023/07/10 12:22:51;;;;;;;;;;;22.40;61.00;;;;;;4117184;28;20016;-86
2023/07/10 12:25:16;;;;;;;;;;;22.40;61.40;;;;;;4120714;28;20434;-83
2023/07/10 12:27:38;;;;;;;;;;;22.50;60.70;;;;;;4115359;28;19937;-86
2023/07/10 12:29:58;;;;;;;;;;;22.50;60.40;;;;;;4124190;28;20569;-86
2023/07/10 12:32:17;;;;;;;;;;;22.60;60.90;;;;;;4137006;28;19928;-84
2023/07/10 12:34:37;;;;;;;;;;;22.70;59.50;;;;;;4115691;28;20065;-83
2023/07/10 12:36:58;;;;;;;;;;;22.70;59.40;;;;;;4116771;28;19920;-84
2023/07/10 12:39:21;;;;;;;;;;;22.70;59.00;;;;;;4116995;28;19932;-84
2023/07/10 12:41:41;;;;;;;;;;;22.70;57.40;;;;;;4120019;28;19925;-84
2023/07/10 12:44:01;;;;;;;;;;;22.80;57.50;;;;;;4119560;28;20320;-84
2023/07/10 12:46:22;;;;;;;;;;;22.80;57.60;;;;;;4123685;28;19933;-85
2023/07/10 12:48:42;;;;;;;;;;;22.80;57.60;;;;;;4119653;28;19933;-84
2023/07/10 12:51:08;;;;;;;;;;;22.80;57.70;;;;;;4116389;28;19973;-86
2023/07/10 12:53:37;;;;;;;;;;;22.80;57.10;;;;;;4134407;28;20001;-84
2023/07/10 12:56:17;;;;;;;;;;;22.80;57.20;;;;;;4121583;28;19920;-85
2023/07/10 12:58:37;;;;;;;;;;;22.90;56.90;;;;;;4134029;28;19929;-85
2023/07/10 13:01:03;;;;;;;;;;;22.90;57.70;;;;;;4127303;28;19952;-86
2023/07/10 13:03:30;;;;;;;;;;;22.90;57.20;;;;;;4135304;28;19949;-86
2023/07/10 13:05:51;;;;;;;;;;;23.00;57.30;;;;;;4152060;28;19971;-86
2023/07/10 13:08:13;;;;;;;;;;;23.00;56.20;;;;;;4131984;28;19937;-85